createdAt,value
2018-06-23T00:01:05.014Z,101557.15
2018-06-23T00:03:33.507Z,101554.85
2018-06-23T00:06:04.848Z,101558.13
2018-06-23T00:08:33.286Z,101556.49
2018-06-23T00:11:01.824Z,101548.98
2018-06-23T00:13:33.542Z,101544.09
2018-06-23T00:16:03.757Z,101545.47
2018-06-23T00:18:32.366Z,101548.68
2018-06-23T00:21:01.093Z,101539.50
2018-06-23T00:23:29.774Z,101540.37
2018-06-23T00:26:04.082Z,101544.03
2018-06-23T00:28:34.372Z,101544.50
2018-06-23T00:31:02.925Z,101549.80
2018-06-23T00:33:31.363Z,101546.07
2018-06-23T00:36:05.726Z,101545.45
2018-06-23T00:38:34.162Z,101539.89
2018-06-23T00:41:02.711Z,101542.44
2018-06-23T00:43:31.881Z,101538.81
2018-06-23T00:46:00.405Z,101541.16
2018-06-23T00:48:32.338Z,101536.81
2018-06-23T00:51:01.219Z,101529.79
2018-06-23T00:53:29.769Z,101532.20
2018-06-23T00:55:58.311Z,101527.23
2018-06-23T00:58:27.078Z,101530.32
2018-06-23T01:00:55.552Z,101527.67
2018-06-23T01:03:24.075Z,101527.92
2018-06-23T01:05:53.691Z,101522.00
2018-06-23T01:08:22.162Z,101523.97
2018-06-23T01:10:52.321Z,101524.92
2018-06-23T01:13:21.090Z,101527.08
2018-06-23T01:15:49.629Z,101526.40
2018-06-23T01:18:18.125Z,101522.98
2018-06-23T01:20:48.012Z,101529.69
2018-06-23T01:23:16.516Z,101524.40
2018-06-23T01:25:45.081Z,101520.12
2018-06-23T01:28:13.870Z,101526.05
2018-06-23T01:30:42.539Z,101532.17
2018-06-23T01:33:11.168Z,101532.73
2018-06-23T01:35:39.962Z,101535.16
2018-06-23T01:38:14.437Z,101535.24
2018-06-23T01:40:43.681Z,101529.33
2018-06-23T01:43:16.111Z,101531.91
2018-06-23T01:45:44.606Z,101535.16
2018-06-23T01:48:13.202Z,101533.80
2018-06-23T01:50:42.171Z,101526.01
2018-06-23T01:53:11.308Z,101527.33
2018-06-23T01:55:39.851Z,101526.01
2018-06-23T01:58:19.642Z,101529.20
2018-06-23T02:00:48.355Z,101528.74
2018-06-23T02:03:17.378Z,101532.31
2018-06-23T02:05:45.918Z,101533.81
2018-06-23T02:08:15.426Z,101542.20
2018-06-23T02:10:44.327Z,101541.12
2018-06-23T02:13:17.675Z,101545.95
2018-06-23T02:20:35.981Z,101539.74
2018-06-23T02:23:21.075Z,101543.62
2018-06-23T02:25:54.670Z,101549.55
2018-06-23T02:28:28.856Z,101551.55
2018-06-23T02:31:03.030Z,101556.52
2018-06-23T02:33:38.039Z,101547.81
2018-06-23T02:36:06.557Z,101550.11
2018-06-23T02:38:35.022Z,101554.94
2018-06-23T02:41:04.341Z,101550.19
2018-06-23T02:43:32.881Z,101550.65
2018-06-23T02:46:06.436Z,101549.50
2018-06-23T02:48:35.266Z,101548.32
2018-06-23T02:51:03.834Z,101542.34
2018-06-23T02:53:35.459Z,101542.80
2018-06-23T02:58:42.111Z,101542.42
2018-06-23T03:03:44.620Z,101546.98
2018-06-23T03:06:13.114Z,101548.02
2018-06-23T03:08:42.001Z,101542.95
2018-06-23T03:11:10.750Z,101541.77
2018-06-23T03:13:39.257Z,101546.28
2018-06-23T03:16:08.221Z,101552.56
2018-06-23T03:18:42.163Z,101558.34
2018-06-23T03:21:10.650Z,101554.42
2018-06-23T03:23:41.575Z,101554.42
2018-06-23T03:26:10.054Z,101554.97
2018-06-23T03:28:39.898Z,101559.10
2018-06-23T03:31:09.533Z,101561.55
2018-06-23T03:33:38.789Z,101564.59
2018-06-23T03:36:07.334Z,101563.04
2018-06-23T03:38:35.810Z,101565.68
2018-06-23T03:41:05.039Z,101562.82
2018-06-23T03:43:33.838Z,101559.77
2018-06-23T03:46:07.201Z,101562.17
2018-06-23T03:48:35.702Z,101566.22
2018-06-23T03:51:09.965Z,101569.73
2018-06-23T03:53:38.470Z,101570.88
2018-06-23T03:56:07.218Z,101573.36
2018-06-23T03:58:36.083Z,101568.95
2018-06-23T04:01:09.525Z,101570.31
2018-06-23T04:03:41.960Z,101566.44
2018-06-23T04:06:10.477Z,101571.39
2018-06-23T04:08:38.975Z,101565.73
2018-06-23T04:11:08.006Z,101567.11
2018-06-23T04:13:37.263Z,101564.33
2018-06-23T04:16:05.846Z,101571.06
2018-06-23T04:18:34.755Z,101565.33
2018-06-23T04:23:37.421Z,101564.79
2018-06-23T04:26:09.403Z,101570.08
2018-06-23T04:28:37.877Z,101569.16
2018-06-23T04:31:13.636Z,101574.77
2018-06-23T04:33:43.459Z,101578.64
2018-06-23T04:36:12.019Z,101573.52
2018-06-23T04:38:40.494Z,101576.03
2018-06-23T04:41:09.795Z,101582.55
2018-06-23T04:43:38.350Z,101582.80
2018-06-23T04:46:07.131Z,101578.61
2018-06-23T04:48:36.122Z,101581.58
2018-06-23T04:51:05.574Z,101583.68
2018-06-23T04:53:49.684Z,101584.22
2018-06-23T04:56:18.658Z,101587.34
2018-06-23T04:58:47.189Z,101582.13
2018-06-23T05:01:15.694Z,101581.77
2018-06-23T05:03:44.448Z,101590.11
2018-06-23T05:06:12.967Z,101585.84
2018-06-23T05:08:42.539Z,101583.38
2018-06-23T05:11:11.127Z,101589.98
2018-06-23T05:13:39.631Z,101588.27
2018-06-23T05:16:09.043Z,101585.30
2018-06-23T05:18:37.619Z,101589.41
2018-06-23T05:21:06.494Z,101592.28
2018-06-23T05:23:35.323Z,101596.66
2018-06-23T05:26:05.928Z,101594.88
2018-06-23T05:28:34.993Z,101586.48
2018-06-23T05:31:03.527Z,101599.30
2018-06-23T05:33:32.479Z,101593.36
2018-06-23T05:36:01.361Z,101600.73
2018-06-23T05:38:29.996Z,101599.30
2018-06-23T05:40:58.587Z,101600.61
2018-06-23T05:43:28.664Z,101597.50
2018-06-23T05:45:57.232Z,101597.73
2018-06-23T05:48:27.797Z,101589.87
2018-06-23T05:51:00.270Z,101596.77
2018-06-23T05:53:28.777Z,101593.91
2018-06-23T05:58:36.994Z,101598.71
2018-06-23T06:01:05.543Z,101597.63
2018-06-23T06:03:34.125Z,101601.63
2018-06-23T06:06:04.674Z,101598.02
2018-06-23T06:08:33.270Z,101601.51
2018-06-23T06:11:09.339Z,101605.39
2018-06-23T06:13:37.814Z,101606.08
2018-06-23T06:16:09.184Z,101605.66
2018-06-23T06:18:39.962Z,101606.27
2018-06-23T06:21:11.103Z,101609.34
2018-06-23T06:23:39.812Z,101612.87
2018-06-23T06:26:08.636Z,101609.45
2018-06-23T06:28:37.201Z,101602.25
2018-06-23T06:31:08.014Z,101604.91
2018-06-23T06:33:36.890Z,101609.09
2018-06-23T06:36:05.679Z,101608.81
2018-06-23T06:38:34.202Z,101607.39
2018-06-23T06:41:03.292Z,101613.67
2018-06-23T06:43:31.934Z,101607.68
2018-06-23T06:46:00.470Z,101611.56
2018-06-23T06:48:29.364Z,101613.48
2018-06-23T06:51:00.340Z,101612.13
2018-06-23T06:53:32.209Z,101612.80
2018-06-23T06:56:00.872Z,101616.11
2018-06-23T06:58:31.851Z,101615.73
2018-06-23T07:01:00.953Z,101610.48
2018-06-23T07:03:29.614Z,101607.41
2018-06-23T07:05:58.127Z,101599.03
2018-06-23T07:08:30.624Z,101603.27
2018-06-23T07:10:59.118Z,101608.22
2018-06-23T07:13:27.644Z,101605.85
2018-06-23T07:15:56.240Z,101604.59
2018-06-23T07:18:24.812Z,101605.89
2018-06-23T07:20:53.680Z,101604.56
2018-06-23T07:23:24.501Z,101606.28
2018-06-23T07:25:53.035Z,101603.02
2018-06-23T07:28:21.542Z,101601.02
2018-06-23T07:30:50.847Z,101603.98
2018-06-23T07:33:19.368Z,101599.98
2018-06-23T07:35:47.954Z,101599.17
2018-06-23T07:38:17.086Z,101597.63
2018-06-23T07:40:45.684Z,101604.26
2018-06-23T07:43:14.607Z,101597.16
2018-06-23T07:45:43.150Z,101600.64
2018-06-23T07:48:11.701Z,101594.75
2018-06-23T07:50:41.060Z,101593.63
2018-06-23T07:53:10.394Z,101591.92
2018-06-23T07:55:45.430Z,101598.92
2018-06-23T07:58:14.446Z,101592.98
2018-06-23T08:00:43.953Z,101588.12
2018-06-23T08:03:17.318Z,101585.53
2018-06-23T08:05:47.382Z,101585.05
2018-06-23T08:08:16.329Z,101581.19
2018-06-23T08:10:45.773Z,101588.58
2018-06-23T08:15:42.330Z,101582.97
2018-06-23T08:18:11.124Z,101585.66
2018-06-23T08:20:40.360Z,101592.28
2018-06-23T08:23:09.131Z,101588.02
2018-06-23T08:25:38.062Z,101582.66
2018-06-23T08:28:06.970Z,101580.15
2018-06-23T08:33:14.987Z,101576.03
2018-06-23T08:35:43.533Z,101576.92
2018-06-23T08:38:12.139Z,101572.61
2018-06-23T08:40:40.686Z,101573.08
2018-06-23T08:43:13.877Z,101570.12
2018-06-23T08:45:42.507Z,101569.80
2018-06-23T08:48:11.447Z,101576.93
2018-06-23T08:50:39.887Z,101571.66
2018-06-23T08:53:08.933Z,101562.86
2018-06-23T08:55:43.888Z,101554.98
2018-06-23T08:58:12.664Z,101552.09
2018-06-23T09:00:41.475Z,101552.05
2018-06-23T09:03:13.413Z,101545.23
2018-06-23T09:05:41.925Z,101543.48
2018-06-23T09:08:18.417Z,101545.30
2018-06-23T09:10:47.275Z,101540.44
2018-06-23T09:13:15.901Z,101546.01
2018-06-23T09:15:44.614Z,101549.13
2018-06-23T09:18:15.902Z,101543.63
2018-06-23T09:20:44.686Z,101542.69
2018-06-23T09:23:13.235Z,101539.49
2018-06-23T09:25:47.412Z,101538.16
2018-06-23T09:28:16.003Z,101541.36
2018-06-23T09:30:55.415Z,101538.64
2018-06-23T09:33:24.411Z,101539.22
2018-06-23T09:35:52.969Z,101532.70
2018-06-23T09:38:21.518Z,101535.59
2018-06-23T09:40:50.661Z,101528.74
2018-06-23T09:43:19.549Z,101537.00
2018-06-23T09:45:48.134Z,101532.77
2018-06-23T09:48:18.338Z,101530.40
2018-06-23T09:50:47.213Z,101519.77
2018-06-23T09:53:15.867Z,101529.18
2018-06-23T09:55:59.246Z,101531.46
2018-06-23T09:58:27.700Z,101530.53
2018-06-23T10:00:57.604Z,101536.69
2018-06-23T10:03:26.167Z,101533.49
2018-06-23T10:05:54.692Z,101539.02
2018-06-23T10:08:23.874Z,101539.02
2018-06-23T10:10:52.436Z,101534.83
2018-06-23T10:13:20.975Z,101541.09
2018-06-23T10:15:49.554Z,101538.55
2018-06-23T10:18:18.056Z,101533.89
2018-06-23T10:20:47.925Z,101529.64
2018-06-23T10:23:22.391Z,101535.30
2018-06-23T10:25:51.486Z,101531.06
2018-06-23T10:28:20.480Z,101535.08
2018-06-23T10:30:52.570Z,101531.20
2018-06-23T10:33:25.948Z,101522.08
2018-06-23T10:35:56.254Z,101513.94
2018-06-23T10:38:30.383Z,101507.14
2018-06-23T10:40:58.956Z,101502.74
2018-06-23T10:43:27.485Z,101506.14
2018-06-23T10:45:56.048Z,101503.98
2018-06-23T10:48:24.891Z,101503.98
2018-06-23T10:50:54.771Z,101508.19
2018-06-23T10:53:23.394Z,101501.16
2018-06-23T10:55:52.253Z,101504.23
2018-06-23T10:58:21.484Z,101495.84
2018-06-23T11:00:50.130Z,101493.89
2018-06-23T11:03:18.664Z,101491.42
2018-06-23T11:05:47.753Z,101482.97
2018-06-23T11:08:16.306Z,101479.44
2018-06-23T11:10:44.932Z,101477.19
2018-06-23T11:13:19.589Z,101474.88
2018-06-23T11:15:48.333Z,101480.08
2018-06-23T11:18:16.921Z,101481.73
2018-06-23T11:20:46.862Z,101476.61
2018-06-23T11:23:15.465Z,101471.58
2018-06-23T11:25:44.072Z,101462.80
2018-06-23T11:28:13.105Z,101470.31
2018-06-23T11:30:45.668Z,101456.36
2018-06-23T11:33:14.213Z,101448.17
2018-06-23T11:35:43.075Z,101453.47
2018-06-23T11:38:12.663Z,101447.84
2018-06-23T11:40:41.208Z,101438.20
2018-06-23T11:43:15.378Z,101433.13
2018-06-23T11:45:44.170Z,101433.90
2018-06-23T11:48:15.894Z,101430.88
2018-06-23T11:50:44.834Z,101422.59
2018-06-23T11:53:13.452Z,101419.63
2018-06-23T11:55:42.076Z,101425.94
2018-06-23T11:58:10.906Z,101412.69
2018-06-23T12:00:39.413Z,101407.08
2018-06-23T12:03:08.152Z,101404.00
2018-06-23T12:05:36.632Z,101404.50
2018-06-23T12:08:06.969Z,101399.89
2018-06-23T12:10:35.884Z,101406.14
2018-06-23T12:13:05.324Z,101409.93
2018-06-23T12:15:49.004Z,101407.44
2018-06-23T12:18:17.996Z,101402.47
2018-06-23T12:20:47.070Z,101395.08
2018-06-23T12:23:15.587Z,101396.06
2018-06-23T12:25:44.547Z,101393.52
2018-06-23T12:28:13.404Z,101397.10
2018-06-23T12:30:42.090Z,101388.52
2018-06-23T12:33:12.058Z,101386.50
2018-06-23T12:35:40.637Z,101385.16
2018-06-23T12:38:09.204Z,101377.55
2018-06-23T12:43:13.292Z,101384.55
2018-06-23T12:45:44.959Z,101377.66
2018-06-23T12:48:13.490Z,101374.35
2018-06-23T12:50:42.186Z,101371.30
2018-06-23T12:53:11.666Z,101368.09
2018-06-23T12:55:41.990Z,101354.52
2018-06-23T12:58:14.724Z,101369.89
2018-06-23T13:00:43.981Z,101376.70
2018-06-23T13:03:19.482Z,101363.40
2018-06-23T13:05:49.043Z,101366.44
2018-06-23T13:08:17.565Z,101363.73
2018-06-23T13:10:46.258Z,101357.42
2018-06-23T13:13:15.310Z,101360.42
2018-06-23T13:15:43.792Z,101346.55
2018-06-23T13:18:19.377Z,101351.38
2018-06-23T13:20:48.245Z,101353.23
2018-06-23T13:23:16.750Z,101364.42
2018-06-23T13:25:45.261Z,101356.87
2018-06-23T13:28:14.159Z,101353.89
2018-06-23T13:30:42.795Z,101355.10
2018-06-23T13:33:11.700Z,101367.40
2018-06-23T13:35:40.678Z,101366.58
2018-06-23T13:38:09.264Z,101363.09
2018-06-23T13:40:39.958Z,101355.61
2018-06-23T13:43:08.876Z,101360.08
2018-06-23T13:45:37.743Z,101357.86
2018-06-23T13:48:12.484Z,101351.96
2018-06-23T13:50:41.477Z,101350.89
2018-06-23T13:53:10.049Z,101353.64
2018-06-23T13:55:38.608Z,101348.51
2018-06-23T13:58:08.612Z,101347.17
2018-06-23T14:00:37.212Z,101357.47
2018-06-23T14:03:11.740Z,101345.83
2018-06-23T14:05:40.716Z,101344.69
2018-06-23T14:08:14.000Z,101353.28
2018-06-23T14:10:42.610Z,101353.41
2018-06-23T14:13:17.824Z,101353.06
2018-06-23T14:15:46.471Z,101358.13
2018-06-23T14:18:14.947Z,101358.51
2018-06-23T14:20:43.890Z,101353.09
2018-06-23T14:23:12.441Z,101357.84
2018-06-23T14:25:40.997Z,101353.78
2018-06-23T14:28:13.945Z,101354.20
2018-06-23T14:30:43.063Z,101350.46
2018-06-23T14:33:11.625Z,101356.77
2018-06-23T14:35:40.665Z,101360.11
2018-06-23T14:38:09.682Z,101355.37
2018-06-23T14:40:38.512Z,101360.88
2018-06-23T14:43:07.457Z,101358.33
2018-06-23T14:45:36.084Z,101352.78
2018-06-23T14:48:06.907Z,101360.76
2018-06-23T14:50:35.864Z,101357.97
2018-06-23T14:56:36.775Z,101363.45
2018-06-23T14:59:06.072Z,101356.94
2018-06-23T15:01:34.588Z,101356.31
2018-06-23T15:04:06.552Z,101349.24
2018-06-23T15:06:36.103Z,101348.95
2018-06-23T15:09:15.713Z,101340.39
2018-06-23T15:11:55.593Z,101334.47
2018-06-23T15:14:27.597Z,101333.80
2018-06-23T15:16:56.402Z,101341.21
2018-06-23T15:19:35.965Z,101346.14
2018-06-23T15:22:16.091Z,101353.20
2018-06-23T15:24:44.759Z,101337.68
2018-06-23T15:27:13.318Z,101323.83
2018-06-23T15:29:42.256Z,101328.38
2018-06-23T15:32:10.763Z,101331.64
2018-06-23T15:34:39.740Z,101319.78
2018-06-23T15:37:08.799Z,101319.80
2018-06-23T15:39:37.348Z,101324.63
2018-06-23T15:42:06.657Z,101316.69
2018-06-23T15:47:08.687Z,101317.27
2018-06-23T15:49:37.263Z,101321.30
2018-06-23T15:52:06.297Z,101326.42
2018-06-23T15:54:34.796Z,101325.33
2018-06-23T15:57:03.415Z,101326.22
2018-06-23T15:59:32.531Z,101324.86
2018-06-23T16:02:01.063Z,101317.41
2018-06-23T16:04:29.620Z,101318.95
2018-06-23T16:07:10.011Z,101323.70
2018-06-23T16:09:38.592Z,101325.19
2018-06-23T16:12:07.414Z,101319.92
2018-06-23T16:14:36.271Z,101327.28
2018-06-23T16:17:05.411Z,101331.69
2018-06-23T16:19:41.570Z,101330.08
2018-06-23T16:22:10.129Z,101325.52
2018-06-23T16:24:45.449Z,101328.11
2018-06-23T16:27:14.343Z,101320.61
2018-06-23T16:29:45.283Z,101317.71
2018-06-23T16:32:13.920Z,101314.73
2018-06-23T16:34:43.672Z,101315.95
2018-06-23T16:37:18.465Z,101314.99
2018-06-23T16:39:47.302Z,101311.56
2018-06-23T16:42:16.899Z,101305.57
2018-06-23T16:44:45.509Z,101307.66
2018-06-23T16:47:14.321Z,101311.05
2018-06-23T16:49:46.402Z,101307.67
2018-06-23T16:52:14.926Z,101308.64
2018-06-23T16:54:47.310Z,101307.31
2018-06-23T16:57:15.945Z,101310.98
2018-06-23T17:02:24.420Z,101307.42
2018-06-23T17:04:52.993Z,101304.95
2018-06-23T17:07:21.505Z,101302.25
2018-06-23T17:12:29.454Z,101306.70
2018-06-23T17:14:58.301Z,101302.33
2018-06-23T17:17:26.851Z,101297.53
2018-06-23T17:20:05.695Z,101294.89
2018-06-23T17:22:34.200Z,101293.53
2018-06-23T17:25:06.611Z,101296.59
2018-06-23T17:27:36.371Z,101287.53
2018-06-23T17:30:06.196Z,101300.06
2018-06-23T17:32:35.527Z,101286.25
2018-06-23T17:35:05.082Z,101306.07
2018-06-23T17:37:35.436Z,101299.44
2018-06-23T17:40:07.000Z,101290.81
2018-06-23T17:42:35.756Z,101289.91
2018-06-23T17:45:08.176Z,101295.66
2018-06-23T17:47:37.322Z,101297.34
2018-06-23T17:50:17.779Z,101289.08
2018-06-23T17:52:52.279Z,101296.80
2018-06-23T17:55:21.585Z,101295.25
2018-06-23T17:57:57.766Z,101295.41
2018-06-23T18:03:06.230Z,101293.77
2018-06-23T18:05:46.371Z,101288.30
2018-06-23T18:08:15.009Z,101293.70
2018-06-23T18:10:45.028Z,101287.22
2018-06-23T18:13:15.183Z,101284.98
2018-06-23T18:15:47.285Z,101293.80
2018-06-23T18:18:17.722Z,101286.19
2018-06-23T18:20:47.251Z,101286.33
2018-06-23T18:23:16.724Z,101286.48
2018-06-23T18:25:45.313Z,101294.59
2018-06-23T18:28:14.431Z,101286.30
2018-06-23T18:30:47.891Z,101285.88
2018-06-23T18:33:17.067Z,101286.86
2018-06-23T18:35:51.888Z,101286.45
2018-06-23T18:38:20.647Z,101288.64
2018-06-23T18:40:55.430Z,101291.06
2018-06-23T18:43:24.401Z,101295.73
2018-06-23T18:45:53.604Z,101289.12
2018-06-23T18:48:25.393Z,101294.52
2018-06-23T18:50:53.934Z,101292.44
2018-06-23T18:53:22.862Z,101293.63
2018-06-23T18:55:51.422Z,101292.66
2018-06-23T18:58:19.973Z,101301.28
2018-06-23T19:00:50.502Z,101291.86
2018-06-23T19:03:30.652Z,101298.70
2018-06-23T19:05:59.305Z,101300.06
2018-06-23T19:08:32.713Z,101294.53
2018-06-23T19:11:01.332Z,101297.30
2018-06-23T19:13:30.347Z,101293.55
2018-06-23T19:16:00.401Z,101297.56
2018-06-23T19:18:29.177Z,101298.68
2018-06-23T19:20:58.046Z,101299.41
2018-06-23T19:25:53.192Z,101307.19
2018-06-23T19:28:36.378Z,101306.20
2018-06-23T19:31:11.318Z,101305.11
2018-06-23T19:33:40.202Z,101300.27
2018-06-23T19:36:10.769Z,101312.15
2018-06-23T19:38:39.636Z,101314.03
2018-06-23T19:41:20.005Z,101312.93
2018-06-23T19:43:49.229Z,101310.95
2018-06-23T19:46:18.306Z,101321.63
2018-06-23T19:48:48.818Z,101318.35
2018-06-23T19:51:19.780Z,101315.77
2018-06-23T19:53:49.488Z,101318.56
2018-06-23T19:56:21.036Z,101319.38
2018-06-23T19:58:50.149Z,101314.66
2018-06-23T20:01:22.216Z,101326.30
2018-06-23T20:03:55.846Z,101322.98
2018-06-23T20:06:25.100Z,101324.18
2018-06-23T20:08:56.912Z,101332.52
2018-06-23T20:11:25.990Z,101330.83
2018-06-23T20:13:54.953Z,101337.59
2018-06-23T20:16:23.846Z,101333.19
2018-06-23T20:18:53.845Z,101338.77
2018-06-23T20:21:22.439Z,101342.15
2018-06-23T20:23:51.079Z,101335.86
2018-06-23T20:26:20.131Z,101335.84
2018-06-23T20:28:48.984Z,101336.77
2018-06-23T20:31:17.844Z,101335.29
2018-06-23T20:33:46.962Z,101335.02
2018-06-23T20:36:15.858Z,101335.59
2018-06-23T20:38:44.422Z,101342.58
2018-06-23T20:41:13.388Z,101337.84
2018-06-23T20:43:41.883Z,101349.56
2018-06-23T20:46:10.435Z,101342.55
2018-06-23T20:48:38.939Z,101341.30
2018-06-23T20:51:07.484Z,101346.48
2018-06-23T20:53:36.310Z,101340.89
2018-06-23T20:56:06.111Z,101339.80
2018-06-23T20:58:35.627Z,101340.71
2018-06-23T21:01:04.377Z,101338.61
2018-06-23T21:03:34.378Z,101337.16
2018-06-23T21:06:03.979Z,101343.19
2018-06-23T21:08:37.818Z,101339.66
2018-06-23T21:11:06.637Z,101341.59
2018-06-23T21:13:36.983Z,101336.43
2018-06-23T21:16:05.709Z,101347.83
2018-06-23T21:18:35.748Z,101341.02
2018-06-23T21:21:05.372Z,101341.25
2018-06-23T21:23:33.883Z,101342.16
2018-06-23T21:26:03.554Z,101339.65
2018-06-23T21:28:33.060Z,101342.31
2018-06-23T21:31:06.348Z,101342.58
2018-06-23T21:33:35.407Z,101341.34
2018-06-23T21:36:05.080Z,101338.79
2018-06-23T21:38:33.560Z,101334.17
2018-06-23T21:41:04.193Z,101336.75
2018-06-23T21:43:38.558Z,101331.78
2018-06-23T21:46:07.110Z,101333.70
2018-06-23T21:48:39.374Z,101340.18
2018-06-23T21:51:08.125Z,101334.31
2018-06-23T21:53:37.048Z,101330.91
2018-06-23T21:56:05.706Z,101333.18
2018-06-23T21:58:34.566Z,101332.08
2018-06-23T22:01:06.569Z,101330.20
2018-06-23T22:03:35.098Z,101324.25
2018-06-23T22:06:06.581Z,101322.92
2018-06-23T22:08:35.121Z,101322.64
2018-06-23T22:11:03.757Z,101326.91
2018-06-23T22:13:32.347Z,101328.52
2018-06-23T22:16:01.030Z,101322.34
2018-06-23T22:18:30.020Z,101318.47
2018-06-23T22:20:58.547Z,101322.45
2018-06-23T22:23:30.501Z,101324.83
2018-06-23T22:26:00.011Z,101324.08
2018-06-23T22:28:31.870Z,101323.61
2018-06-23T22:31:00.372Z,101323.86
2018-06-23T22:33:29.203Z,101315.25
2018-06-23T22:35:57.726Z,101315.64
2018-06-23T22:38:32.645Z,101312.48
2018-06-23T22:41:03.691Z,101308.41
2018-06-23T22:43:36.670Z,101306.42
2018-06-23T22:46:05.975Z,101302.71
2018-06-23T22:48:34.588Z,101306.11
2018-06-23T22:51:03.198Z,101303.34
2018-06-23T22:53:31.788Z,101303.15
2018-06-23T22:56:00.427Z,101299.00
2018-06-23T22:58:28.949Z,101304.20
2018-06-23T23:00:57.494Z,101294.78
2018-06-23T23:03:26.403Z,101298.69
2018-06-23T23:05:55.377Z,101298.53
2018-06-23T23:08:29.651Z,101298.25
2018-06-23T23:10:58.165Z,101298.37
2018-06-23T23:13:26.631Z,101295.48
2018-06-23T23:15:55.134Z,101287.63
2018-06-23T23:18:26.725Z,101292.36
2018-06-23T23:20:55.340Z,101293.96
2018-06-23T23:23:23.834Z,101288.06
2018-06-23T23:25:52.308Z,101285.76
2018-06-23T23:28:26.533Z,101288.14
2018-06-23T23:30:55.520Z,101285.98
2018-06-23T23:33:28.740Z,101285.59
2018-06-23T23:35:57.290Z,101284.27
2018-06-23T23:38:26.076Z,101283.22
2018-06-23T23:40:54.538Z,101283.80
2018-06-23T23:43:29.606Z,101278.84
2018-06-23T23:45:58.082Z,101274.86
2018-06-23T23:48:26.551Z,101282.08
2018-06-23T23:50:55.841Z,101274.80
2018-06-23T23:53:38.673Z,101274.53
2018-06-23T23:56:07.766Z,101283.20
2018-06-23T23:58:36.356Z,101275.06
